Gleed, Washington
Current Conditions -  °F | °C
As of 8:53 AM on Tuesday 27 Jan 2015 (Local Time) from KYKM Reporting Station
Moderate Fog Moderate Fog  
Wind Chill: 28°   Ceiling: 200
Heat Index: 33°   Visibility: 0.25mi
Dew Point: 31°   Wind: 6mph
Humidity: 92%   Direction: 250°WSW
Pressure: 30.05"   Gusts: NA
Location:  46.6584°N, 120.612°W
Report Text: KYKM 271653Z 25005KT 1/4SM R27/1600V2000FT FG VV002 01/M01 A3005 RMK AO2 TWR VIS 1/4 SLP185 I1001 T00061006
Loading
Personal Weather Stations






























Interactive Weather Map New forecast layout! Learn more

10-Day Weather Forecast

Advertisements
Track Severe Weather on mobile